sensor_id;sensor_type;location;lat;lon;timestamp;temperature;humidity
28959;DHT22;16066;0.000;0.000;2024-01-11T06:00:23;16.00;31.50
28959;DHT22;16066;0.000;0.000;2024-01-11T06:02:49;15.90;31.40
28959;DHT22;16066;0.000;0.000;2024-01-11T06:05:15;15.90;31.30
28959;DHT22;16066;0.000;0.000;2024-01-11T06:07:40;15.90;31.50
28959;DHT22;16066;0.000;0.000;2024-01-11T06:10:07;15.90;31.60
28959;DHT22;16066;0.000;0.000;2024-01-11T06:12:34;15.90;31.60
28959;DHT22;16066;0.000;0.000;2024-01-11T06:15:00;15.90;31.60
28959;DHT22;16066;0.000;0.000;2024-01-11T06:17:26;15.90;31.70
28959;DHT22;16066;0.000;0.000;2024-01-11T06:19:52;15.90;31.80
28959;DHT22;16066;0.000;0.000;2024-01-11T06:22:17;16.00;31.70
28959;DHT22;16066;0.000;0.000;2024-01-11T06:24:43;15.90;31.70
28959;DHT22;16066;0.000;0.000;2024-01-11T06:27:09;15.90;31.70
28959;DHT22;16066;0.000;0.000;2024-01-11T06:29:35;15.90;31.80
28959;DHT22;16066;0.000;0.000;2024-01-11T06:32:00;15.90;31.80
28959;DHT22;16066;0.000;0.000;2024-01-11T06:34:26;15.90;31.90
28959;DHT22;16066;0.000;0.000;2024-01-11T06:36:53;15.90;31.80
28959;DHT22;16066;0.000;0.000;2024-01-11T06:39:19;15.90;32.00
28959;DHT22;16066;0.000;0.000;2024-01-11T06:41:44;15.90;32.40
28959;DHT22;16066;0.000;0.000;2024-01-11T06:44:10;16.00;32.40
28959;DHT22;16066;0.000;0.000;2024-01-11T06:46:35;16.10;32.20
28959;DHT22;16066;0.000;0.000;2024-01-11T06:49:01;16.20;33.00
28959;DHT22;16066;0.000;0.000;2024-01-11T06:51:27;16.20;32.30
28959;DHT22;16066;0.000;0.000;2024-01-11T06:53:53;16.30;32.30
28959;DHT22;16066;0.000;0.000;2024-01-11T06:56:19;16.30;32.30
28959;DHT22;16066;0.000;0.000;2024-01-11T06:58:46;16.40;32.30
28959;DHT22;16066;0.000;0.000;2024-01-11T07:01:12;16.50;33.00
28959;DHT22;16066;0.000;0.000;2024-01-11T07:03:38;16.50;32.90
28959;DHT22;16066;0.000;0.000;2024-01-11T07:06:04;16.60;32.30
28959;DHT22;16066;0.000;0.000;2024-01-11T07:08:30;16.70;32.30
28959;DHT22;16066;0.000;0.000;2024-01-11T07:10:56;16.70;32.20
28959;DHT22;16066;0.000;0.000;2024-01-11T07:13:22;16.80;32.10
28959;DHT22;16066;0.000;0.000;2024-01-11T07:15:48;17.00;32.20
28959;DHT22;16066;0.000;0.000;2024-01-11T07:18:14;17.10;32.10
28959;DHT22;16066;0.000;0.000;2024-01-11T07:20:40;17.20;32.00
28959;DHT22;16066;0.000;0.000;2024-01-11T07:23:06;17.30;32.00
28959;DHT22;16066;0.000;0.000;2024-01-11T07:25:32;17.40;32.00
28959;DHT22;16066;0.000;0.000;2024-01-11T07:27:57;17.50;32.00
28959;DHT22;16066;0.000;0.000;2024-01-11T07:30:23;17.60;32.50
28959;DHT22;16066;0.000;0.000;2024-01-11T07:32:49;17.80;32.00
28959;DHT22;16066;0.000;0.000;2024-01-11T07:35:14;17.90;32.10
28959;DHT22;16066;0.000;0.000;2024-01-11T07:37:40;18.00;32.00
28959;DHT22;16066;0.000;0.000;2024-01-11T07:40:06;18.10;32.50
28959;DHT22;16066;0.000;0.000;2024-01-11T07:42:37;18.20;32.20
28959;DHT22;16066;0.000;0.000;2024-01-11T07:45:03;18.40;32.80
28959;DHT22;16066;0.000;0.000;2024-01-11T07:47:30;18.50;32.50
28959;DHT22;16066;0.000;0.000;2024-01-11T07:49:56;18.50;32.40
28959;DHT22;16066;0.000;0.000;2024-01-11T07:52:21;18.60;32.20
28959;DHT22;16066;0.000;0.000;2024-01-11T07:54:47;18.70;32.20
28959;DHT22;16066;0.000;0.000;2024-01-11T07:57:12;18.80;32.20
28959;DHT22;16066;0.000;0.000;2024-01-11T07:59:39;18.90;32.10
28959;DHT22;16066;0.000;0.000;2024-01-11T08:02:04;18.90;32.10
28959;DHT22;16066;0.000;0.000;2024-01-11T08:04:31;19.00;32.00
28959;DHT22;16066;0.000;0.000;2024-01-11T08:06:57;19.10;32.00
28959;DHT22;16066;0.000;0.000;2024-01-11T08:09:28;19.20;32.00
28959;DHT22;16066;0.000;0.000;2024-01-11T08:11:54;19.20;32.00
28959;DHT22;16066;0.000;0.000;2024-01-11T08:14:20;19.30;32.10
28959;DHT22;16066;0.000;0.000;2024-01-11T08:16:45;19.30;31.90
28959;DHT22;16066;0.000;0.000;2024-01-11T08:19:11;19.40;31.90
28959;DHT22;16066;0.000;0.000;2024-01-11T08:21:39;19.40;31.90
28959;DHT22;16066;0.000;0.000;2024-01-11T08:24:05;19.50;31.90
28959;DHT22;16066;0.000;0.000;2024-01-11T08:26:31;19.50;31.90
28959;DHT22;16066;0.000;0.000;2024-01-11T08:28:56;19.50;31.70
28959;DHT22;16066;0.000;0.000;2024-01-11T08:31:22;19.60;31.60
28959;DHT22;16066;0.000;0.000;2024-01-11T08:33:48;19.60;31.50
28959;DHT22;16066;0.000;0.000;2024-01-11T08:36:13;19.60;31.40
28959;DHT22;16066;0.000;0.000;2024-01-11T08:38:39;19.70;31.30
28959;DHT22;16066;0.000;0.000;2024-01-11T08:41:06;19.70;31.10
28959;DHT22;16066;0.000;0.000;2024-01-11T08:43:32;19.70;31.30
28959;DHT22;16066;0.000;0.000;2024-01-11T08:45:58;19.80;31.40
28959;DHT22;16066;0.000;0.000;2024-01-11T08:48:23;19.90;32.20
28959;DHT22;16066;0.000;0.000;2024-01-11T08:50:49;20.00;32.80
28959;DHT22;16066;0.000;0.000;2024-01-11T08:53:15;20.10;32.60
28959;DHT22;16066;0.000;0.000;2024-01-11T08:55:41;20.10;32.00
28959;DHT22;16066;0.000;0.000;2024-01-11T08:58:08;20.20;31.70
28959;DHT22;16066;0.000;0.000;2024-01-11T09:00:33;20.30;32.00
28959;DHT22;16066;0.000;0.000;2024-01-11T09:02:59;20.30;31.20
28959;DHT22;16066;0.000;0.000;2024-01-11T09:05:25;20.40;30.90
28959;DHT22;16066;0.000;0.000;2024-01-11T09:07:50;20.40;30.90
28959;DHT22;16066;0.000;0.000;2024-01-11T09:10:16;20.40;30.70
28959;DHT22;16066;0.000;0.000;2024-01-11T09:12:41;20.40;30.80
28959;DHT22;16066;0.000;0.000;2024-01-11T09:15:07;20.50;31.30
28959;DHT22;16066;0.000;0.000;2024-01-11T09:17:33;20.40;31.30
28959;DHT22;16066;0.000;0.000;2024-01-11T09:19:58;20.50;31.40
28959;DHT22;16066;0.000;0.000;2024-01-11T09:22:24;20.50;31.20
28959;DHT22;16066;0.000;0.000;2024-01-11T09:24:49;20.60;31.10
28959;DHT22;16066;0.000;0.000;2024-01-11T09:27:15;20.60;31.10
28959;DHT22;16066;0.000;0.000;2024-01-11T09:29:44;20.60;31.10
28959;DHT22;16066;0.000;0.000;2024-01-11T09:32:10;20.60;31.10
28959;DHT22;16066;0.000;0.000;2024-01-11T09:34:36;20.60;30.90
28959;DHT22;16066;0.000;0.000;2024-01-11T09:37:01;20.60;30.80
28959;DHT22;16066;0.000;0.000;2024-01-11T09:39:27;20.60;30.90
28959;DHT22;16066;0.000;0.000;2024-01-11T09:42:06;20.50;30.60
28959;DHT22;16066;0.000;0.000;2024-01-11T09:44:32;20.50;30.80
28959;DHT22;16066;0.000;0.000;2024-01-11T09:46:58;20.50;31.10
28959;DHT22;16066;0.000;0.000;2024-01-11T09:49:25;20.40;31.30
28959;DHT22;16066;0.000;0.000;2024-01-11T09:51:51;20.40;31.50
28959;DHT22;16066;0.000;0.000;2024-01-11T09:54:18;20.30;31.50
28959;DHT22;16066;0.000;0.000;2024-01-11T09:56:46;20.30;31.50
28959;DHT22;16066;0.000;0.000;2024-01-11T09:59:12;20.30;31.60
28959;DHT22;16066;0.000;0.000;2024-01-11T10:01:38;20.30;31.80
28959;DHT22;16066;0.000;0.000;2024-01-11T10:04:03;20.30;32.70
28959;DHT22;16066;0.000;0.000;2024-01-11T10:06:32;20.30;32.00
28959;DHT22;16066;0.000;0.000;2024-01-11T10:08:59;20.30;32.20
28959;DHT22;16066;0.000;0.000;2024-01-11T10:11:25;20.40;33.00
28959;DHT22;16066;0.000;0.000;2024-01-11T10:13:56;20.40;32.30
28959;DHT22;16066;0.000;0.000;2024-01-11T10:16:22;20.40;32.20
28959;DHT22;16066;0.000;0.000;2024-01-11T10:18:47;20.50;31.90
28959;DHT22;16066;0.000;0.000;2024-01-11T10:21:13;20.50;31.90
28959;DHT22;16066;0.000;0.000;2024-01-11T10:23:39;20.50;31.70
28959;DHT22;16066;0.000;0.000;2024-01-11T10:26:05;20.50;31.50
28959;DHT22;16066;0.000;0.000;2024-01-11T10:28:33;20.60;31.70
28959;DHT22;16066;0.000;0.000;2024-01-11T10:31:05;20.60;31.80
28959;DHT22;16066;0.000;0.000;2024-01-11T10:33:34;20.60;31.90
28959;DHT22;16066;0.000;0.000;2024-01-11T10:36:01;20.70;31.80
28959;DHT22;16066;0.000;0.000;2024-01-11T10:38:29;20.70;31.80
28959;DHT22;16066;0.000;0.000;2024-01-11T10:40:55;20.70;31.60
28959;DHT22;16066;0.000;0.000;2024-01-11T10:43:25;20.70;31.40
28959;DHT22;16066;0.000;0.000;2024-01-11T10:45:51;20.80;31.40
28959;DHT22;16066;0.000;0.000;2024-01-11T10:48:21;20.80;31.30
28959;DHT22;16066;0.000;0.000;2024-01-11T10:50:52;20.80;31.40
28959;DHT22;16066;0.000;0.000;2024-01-11T10:53:28;20.80;31.50
28959;DHT22;16066;0.000;0.000;2024-01-11T10:55:59;20.80;31.30
28959;DHT22;16066;0.000;0.000;2024-01-11T10:58:26;20.70;31.20
28959;DHT22;16066;0.000;0.000;2024-01-11T11:00:53;20.70;31.10
28959;DHT22;16066;0.000;0.000;2024-01-11T11:03:23;20.70;30.90
28959;DHT22;16066;0.000;0.000;2024-01-11T11:05:53;20.70;31.20
28959;DHT22;16066;0.000;0.000;2024-01-11T11:08:19;20.70;31.40
28959;DHT22;16066;0.000;0.000;2024-01-11T11:10:46;20.70;31.60
28959;DHT22;16066;0.000;0.000;2024-01-11T11:13:14;20.70;31.80
28959;DHT22;16066;0.000;0.000;2024-01-11T11:15:44;20.70;32.00
28959;DHT22;16066;0.000;0.000;2024-01-11T11:18:12;20.70;31.90
28959;DHT22;16066;0.000;0.000;2024-01-11T11:20:39;20.70;32.10
28959;DHT22;16066;0.000;0.000;2024-01-11T11:23:08;20.70;32.00
28959;DHT22;16066;0.000;0.000;2024-01-11T11:25:35;20.70;32.20
28959;DHT22;16066;0.000;0.000;2024-01-11T11:28:01;20.70;32.10
28959;DHT22;16066;0.000;0.000;2024-01-11T11:30:30;20.70;32.00
28959;DHT22;16066;0.000;0.000;2024-01-11T11:32:55;20.70;32.10
28959;DHT22;16066;0.000;0.000;2024-01-11T11:35:24;20.70;31.70
28959;DHT22;16066;0.000;0.000;2024-01-11T11:37:56;20.70;31.50
28959;DHT22;16066;0.000;0.000;2024-01-11T11:40:32;20.80;31.40
28959;DHT22;16066;0.000;0.000;2024-01-11T11:43:01;20.80;31.30
28959;DHT22;16066;0.000;0.000;2024-01-11T11:45:27;20.80;31.20
28959;DHT22;16066;0.000;0.000;2024-01-11T11:47:53;20.80;31.00
28959;DHT22;16066;0.000;0.000;2024-01-11T11:50:22;20.80;30.90
28959;DHT22;16066;0.000;0.000;2024-01-11T11:52:53;20.80;30.70
28959;DHT22;16066;0.000;0.000;2024-01-11T11:55:25;20.80;30.80
28959;DHT22;16066;0.000;0.000;2024-01-11T11:57:51;20.80;30.80
28959;DHT22;16066;0.000;0.000;2024-01-11T12:00:18;20.80;30.70
28959;DHT22;16066;0.000;0.000;2024-01-11T12:02:44;20.80;30.60
28959;DHT22;16066;0.000;0.000;2024-01-11T12:05:11;20.80;30.80
28959;DHT22;16066;0.000;0.000;2024-01-11T12:07:37;20.80;30.80
28959;DHT22;16066;0.000;0.000;2024-01-11T12:10:03;20.80;31.00
28959;DHT22;16066;0.000;0.000;2024-01-11T12:12:29;20.70;31.60
28959;DHT22;16066;0.000;0.000;2024-01-11T12:14:55;20.70;31.40
28959;DHT22;16066;0.000;0.000;2024-01-11T12:17:21;20.70;31.20
28959;DHT22;16066;0.000;0.000;2024-01-11T12:19:46;20.70;31.10
28959;DHT22;16066;0.000;0.000;2024-01-11T12:22:12;20.70;31.30
28959;DHT22;16066;0.000;0.000;2024-01-11T12:24:37;20.70;31.10
28959;DHT22;16066;0.000;0.000;2024-01-11T12:27:03;20.70;31.10
28959;DHT22;16066;0.000;0.000;2024-01-11T12:29:29;20.70;32.10
28959;DHT22;16066;0.000;0.000;2024-01-11T12:31:58;20.70;31.10
28959;DHT22;16066;0.000;0.000;2024-01-11T12:34:24;20.80;31.00
28959;DHT22;16066;0.000;0.000;2024-01-11T12:36:51;20.80;31.00
28959;DHT22;16066;0.000;0.000;2024-01-11T12:39:19;20.80;30.90
28959;DHT22;16066;0.000;0.000;2024-01-11T12:41:44;20.90;31.30
28959;DHT22;16066;0.000;0.000;2024-01-11T12:44:10;20.90;30.50
28959;DHT22;16066;0.000;0.000;2024-01-11T12:46:35;20.90;30.50
28959;DHT22;16066;0.000;0.000;2024-01-11T12:49:01;20.90;30.50
28959;DHT22;16066;0.000;0.000;2024-01-11T12:51:26;20.90;30.60
28959;DHT22;16066;0.000;0.000;2024-01-11T12:53:52;20.90;30.40
28959;DHT22;16066;0.000;0.000;2024-01-11T12:56:19;20.90;30.50
28959;DHT22;16066;0.000;0.000;2024-01-11T12:58:46;20.90;30.50
28959;DHT22;16066;0.000;0.000;2024-01-11T13:01:12;20.90;30.60
28959;DHT22;16066;0.000;0.000;2024-01-11T13:03:40;20.90;30.60
28959;DHT22;16066;0.000;0.000;2024-01-11T13:06:08;20.80;30.90
28959;DHT22;16066;0.000;0.000;2024-01-11T13:08:34;20.80;31.20
28959;DHT22;16066;0.000;0.000;2024-01-11T13:11:02;20.80;31.30
28959;DHT22;16066;0.000;0.000;2024-01-11T13:13:35;20.80;31.60
28959;DHT22;16066;0.000;0.000;2024-01-11T13:16:04;20.80;31.60
28959;DHT22;16066;0.000;0.000;2024-01-11T13:18:36;20.90;32.20
28959;DHT22;16066;0.000;0.000;2024-01-11T13:21:02;20.90;31.60
28959;DHT22;16066;0.000;0.000;2024-01-11T13:23:28;20.90;31.60
28959;DHT22;16066;0.000;0.000;2024-01-11T13:25:53;20.90;31.50
28959;DHT22;16066;0.000;0.000;2024-01-11T13:28:19;21.00;31.60
28959;DHT22;16066;0.000;0.000;2024-01-11T13:30:45;21.00;31.40
28959;DHT22;16066;0.000;0.000;2024-01-11T13:33:11;21.00;31.60
28959;DHT22;16066;0.000;0.000;2024-01-11T13:35:40;21.00;31.60
28959;DHT22;16066;0.000;0.000;2024-01-11T13:38:08;21.00;31.60
28959;DHT22;16066;0.000;0.000;2024-01-11T13:40:33;21.00;31.60
28959;DHT22;16066;0.000;0.000;2024-01-11T13:42:59;21.00;31.60
28959;DHT22;16066;0.000;0.000;2024-01-11T13:45:26;21.00;31.50
28959;DHT22;16066;0.000;0.000;2024-01-11T13:47:52;21.00;31.60
28959;DHT22;16066;0.000;0.000;2024-01-11T13:50:21;21.00;31.60
28959;DHT22;16066;0.000;0.000;2024-01-11T13:52:46;21.10;31.60
28959;DHT22;16066;0.000;0.000;2024-01-11T13:55:12;21.10;31.70
28959;DHT22;16066;0.000;0.000;2024-01-11T13:57:39;21.10;31.70
28959;DHT22;16066;0.000;0.000;2024-01-11T14:00:05;21.10;31.60
28959;DHT22;16066;0.000;0.000;2024-01-11T14:02:31;21.10;31.60
28959;DHT22;16066;0.000;0.000;2024-01-11T14:04:57;21.10;31.70
28959;DHT22;16066;0.000;0.000;2024-01-11T14:07:23;21.10;31.70
28959;DHT22;16066;0.000;0.000;2024-01-11T14:09:49;21.10;31.80
28959;DHT22;16066;0.000;0.000;2024-01-11T14:12:15;21.10;31.80
28959;DHT22;16066;0.000;0.000;2024-01-11T14:14:41;21.10;31.80
28959;DHT22;16066;0.000;0.000;2024-01-11T14:17:07;21.10;31.80
28959;DHT22;16066;0.000;0.000;2024-01-11T14:19:33;21.10;31.80
28959;DHT22;16066;0.000;0.000;2024-01-11T14:21:59;21.10;31.80
28959;DHT22;16066;0.000;0.000;2024-01-11T14:24:24;21.10;32.00
28959;DHT22;16066;0.000;0.000;2024-01-11T14:26:51;21.10;31.80
28959;DHT22;16066;0.000;0.000;2024-01-11T14:29:16;21.10;31.90
28959;DHT22;16066;0.000;0.000;2024-01-11T14:31:42;21.10;32.00
28959;DHT22;16066;0.000;0.000;2024-01-11T14:34:07;21.10;31.70
28959;DHT22;16066;0.000;0.000;2024-01-11T14:36:33;21.10;31.80
28959;DHT22;16066;0.000;0.000;2024-01-11T14:38:58;21.10;31.80
28959;DHT22;16066;0.000;0.000;2024-01-11T14:41:24;21.00;31.70
28959;DHT22;16066;0.000;0.000;2024-01-11T14:43:49;21.00;32.00
28959;DHT22;16066;0.000;0.000;2024-01-11T14:46:15;21.00;31.80
28959;DHT22;16066;0.000;0.000;2024-01-11T14:48:41;21.10;31.70
28959;DHT22;16066;0.000;0.000;2024-01-11T14:51:07;21.10;31.60
28959;DHT22;16066;0.000;0.000;2024-01-11T14:53:33;21.10;31.40
28959;DHT22;16066;0.000;0.000;2024-01-11T14:55:59;21.10;31.10
28959;DHT22;16066;0.000;0.000;2024-01-11T14:58:24;21.10;31.00
28959;DHT22;16066;0.000;0.000;2024-01-11T15:00:50;21.10;31.00
28959;DHT22;16066;0.000;0.000;2024-01-11T15:03:15;21.10;31.00
28959;DHT22;16066;0.000;0.000;2024-01-11T15:05:41;21.00;30.90
28959;DHT22;16066;0.000;0.000;2024-01-11T15:08:07;21.00;30.80
28959;DHT22;16066;0.000;0.000;2024-01-11T15:10:32;21.00;30.70
28959;DHT22;16066;0.000;0.000;2024-01-11T15:12:58;20.90;30.50
28959;DHT22;16066;0.000;0.000;2024-01-11T15:15:23;20.90;30.60
28959;DHT22;16066;0.000;0.000;2024-01-11T15:17:49;20.90;30.70
28959;DHT22;16066;0.000;0.000;2024-01-11T15:20:15;20.90;30.80
28959;DHT22;16066;0.000;0.000;2024-01-11T15:22:41;20.90;31.50
28959;DHT22;16066;0.000;0.000;2024-01-11T15:25:06;20.90;31.30
28959;DHT22;16066;0.000;0.000;2024-01-11T15:27:32;20.90;31.70
28959;DHT22;16066;0.000;0.000;2024-01-11T15:29:58;20.90;31.40
28959;DHT22;16066;0.000;0.000;2024-01-11T15:32:23;20.90;31.80
28959;DHT22;16066;0.000;0.000;2024-01-11T15:34:49;20.80;31.60
28959;DHT22;16066;0.000;0.000;2024-01-11T15:37:14;20.80;31.50
28959;DHT22;16066;0.000;0.000;2024-01-11T15:39:40;20.80;31.30
28959;DHT22;16066;0.000;0.000;2024-01-11T15:42:06;20.90;31.30
28959;DHT22;16066;0.000;0.000;2024-01-11T15:44:31;20.90;31.20
28959;DHT22;16066;0.000;0.000;2024-01-11T15:46:59;21.00;31.20
28959;DHT22;16066;0.000;0.000;2024-01-11T15:49:24;21.00;31.10
28959;DHT22;16066;0.000;0.000;2024-01-11T15:51:50;21.10;31.00
28959;DHT22;16066;0.000;0.000;2024-01-11T15:54:16;21.10;30.90
28959;DHT22;16066;0.000;0.000;2024-01-11T15:56:41;21.10;30.90
28959;DHT22;16066;0.000;0.000;2024-01-11T15:59:06;21.10;30.90
28959;DHT22;16066;0.000;0.000;2024-01-11T16:01:34;21.20;30.80
28959;DHT22;16066;0.000;0.000;2024-01-11T16:04:02;21.10;30.60
28959;DHT22;16066;0.000;0.000;2024-01-11T16:06:29;21.20;30.80
28959;DHT22;16066;0.000;0.000;2024-01-11T16:08:55;21.10;30.80
28959;DHT22;16066;0.000;0.000;2024-01-11T16:11:20;21.10;30.80
28959;DHT22;16066;0.000;0.000;2024-01-11T16:13:46;21.10;30.80
28959;DHT22;16066;0.000;0.000;2024-01-11T16:16:13;21.10;30.80
28959;DHT22;16066;0.000;0.000;2024-01-11T16:18:39;21.10;30.90
28959;DHT22;16066;0.000;0.000;2024-01-11T16:21:05;21.10;31.10
28959;DHT22;16066;0.000;0.000;2024-01-11T16:23:32;21.10;31.20
28959;DHT22;16066;0.000;0.000;2024-01-11T16:25:58;21.00;31.30
28959;DHT22;16066;0.000;0.000;2024-01-11T16:28:24;21.00;31.40
28959;DHT22;16066;0.000;0.000;2024-01-11T16:30:49;21.00;32.30
28959;DHT22;16066;0.000;0.000;2024-01-11T16:33:15;21.00;31.50
28959;DHT22;16066;0.000;0.000;2024-01-11T16:35:41;21.00;31.50
28959;DHT22;16066;0.000;0.000;2024-01-11T16:38:07;21.00;31.40
28959;DHT22;16066;0.000;0.000;2024-01-11T16:40:32;20.90;32.40
28959;DHT22;16066;0.000;0.000;2024-01-11T16:42:59;21.00;31.40
28959;DHT22;16066;0.000;0.000;2024-01-11T16:45:24;21.00;31.40
28959;DHT22;16066;0.000;0.000;2024-01-11T16:47:50;21.00;31.30
28959;DHT22;16066;0.000;0.000;2024-01-11T16:50:16;21.00;31.80
28959;DHT22;16066;0.000;0.000;2024-01-11T16:52:41;20.90;31.60
28959;DHT22;16066;0.000;0.000;2024-01-11T16:55:07;21.00;32.00
28959;DHT22;16066;0.000;0.000;2024-01-11T16:57:33;21.00;31.80
28959;DHT22;16066;0.000;0.000;2024-01-11T16:59:59;21.00;31.70
28959;DHT22;16066;0.000;0.000;2024-01-11T17:02:25;21.00;31.60
28959;DHT22;16066;0.000;0.000;2024-01-11T17:04:53;21.00;31.40
28959;DHT22;16066;0.000;0.000;2024-01-11T17:07:19;21.00;31.30
28959;DHT22;16066;0.000;0.000;2024-01-11T17:09:45;20.90;31.20
28959;DHT22;16066;0.000;0.000;2024-01-11T17:12:10;20.90;31.20
28959;DHT22;16066;0.000;0.000;2024-01-11T17:14:36;20.90;31.30
28959;DHT22;16066;0.000;0.000;2024-01-11T17:17:01;20.80;31.40
28959;DHT22;16066;0.000;0.000;2024-01-11T17:19:29;20.80;31.60
28959;DHT22;16066;0.000;0.000;2024-01-11T17:21:54;20.80;32.30
28959;DHT22;16066;0.000;0.000;2024-01-11T17:24:20;20.80;32.10
28959;DHT22;16066;0.000;0.000;2024-01-11T17:26:46;20.80;32.20
28959;DHT22;16066;0.000;0.000;2024-01-11T17:29:11;20.80;32.10
28959;DHT22;16066;0.000;0.000;2024-01-11T17:31:36;20.80;32.00
28959;DHT22;16066;0.000;0.000;2024-01-11T17:34:08;20.90;31.80
28959;DHT22;16066;0.000;0.000;2024-01-11T17:36:34;20.90;31.90
28959;DHT22;16066;0.000;0.000;2024-01-11T17:38:59;21.00;31.80
28959;DHT22;16066;0.000;0.000;2024-01-11T17:41:25;21.00;31.60
28959;DHT22;16066;0.000;0.000;2024-01-11T17:43:50;21.00;31.60
28959;DHT22;16066;0.000;0.000;2024-01-11T17:46:21;21.00;31.60
28959;DHT22;16066;0.000;0.000;2024-01-11T17:48:47;21.00;31.60
28959;DHT22;16066;0.000;0.000;2024-01-11T17:51:13;21.00;31.50
28959;DHT22;16066;0.000;0.000;2024-01-11T17:53:39;21.00;31.50
28959;DHT22;16066;0.000;0.000;2024-01-11T17:56:04;21.00;31.50
28959;DHT22;16066;0.000;0.000;2024-01-11T17:58:30;21.00;31.60
28959;DHT22;16066;0.000;0.000;2024-01-11T18:00:56;21.00;31.40
28959;DHT22;16066;0.000;0.000;2024-01-11T18:03:23;21.00;31.40
28959;DHT22;16066;0.000;0.000;2024-01-11T18:05:49;21.00;31.40
28959;DHT22;16066;0.000;0.000;2024-01-11T18:08:14;21.00;31.30
28959;DHT22;16066;0.000;0.000;2024-01-11T18:10:40;21.00;31.40
28959;DHT22;16066;0.000;0.000;2024-01-11T18:13:06;20.90;31.40
28959;DHT22;16066;0.000;0.000;2024-01-11T18:15:32;20.90;31.40
28959;DHT22;16066;0.000;0.000;2024-01-11T18:17:58;20.90;31.50
28959;DHT22;16066;0.000;0.000;2024-01-11T18:20:23;20.90;31.50
28959;DHT22;16066;0.000;0.000;2024-01-11T18:22:49;20.90;31.40
28959;DHT22;16066;0.000;0.000;2024-01-11T18:25:16;20.80;31.40
28959;DHT22;16066;0.000;0.000;2024-01-11T18:27:41;20.80;31.60
28959;DHT22;16066;0.000;0.000;2024-01-11T18:30:07;20.80;31.70
28959;DHT22;16066;0.000;0.000;2024-01-11T18:32:33;20.70;32.10
28959;DHT22;16066;0.000;0.000;2024-01-11T18:34:59;20.80;31.90
28959;DHT22;16066;0.000;0.000;2024-01-11T18:37:24;20.80;32.50
28959;DHT22;16066;0.000;0.000;2024-01-11T18:39:51;20.80;31.80
28959;DHT22;16066;0.000;0.000;2024-01-11T18:42:18;20.90;31.70
28959;DHT22;16066;0.000;0.000;2024-01-11T18:44:44;20.90;31.60
28959;DHT22;16066;0.000;0.000;2024-01-11T18:47:10;20.90;31.50
28959;DHT22;16066;0.000;0.000;2024-01-11T18:49:36;20.90;31.30
28959;DHT22;16066;0.000;0.000;2024-01-11T18:52:01;20.90;31.30
28959;DHT22;16066;0.000;0.000;2024-01-11T18:54:27;20.90;31.30
28959;DHT22;16066;0.000;0.000;2024-01-11T18:56:52;20.90;31.10
28959;DHT22;16066;0.000;0.000;2024-01-11T18:59:18;20.90;31.20
28959;DHT22;16066;0.000;0.000;2024-01-11T19:01:47;20.90;31.20
28959;DHT22;16066;0.000;0.000;2024-01-11T19:04:13;20.90;31.20
28959;DHT22;16066;0.000;0.000;2024-01-11T19:06:39;20.80;31.50
28959;DHT22;16066;0.000;0.000;2024-01-11T19:09:04;20.90;31.50
28959;DHT22;16066;0.000;0.000;2024-01-11T19:11:30;20.80;31.60
28959;DHT22;16066;0.000;0.000;2024-01-11T19:13:56;20.80;32.00
28959;DHT22;16066;0.000;0.000;2024-01-11T19:16:22;20.80;32.50
28959;DHT22;16066;0.000;0.000;2024-01-11T19:18:48;20.70;32.80
28959;DHT22;16066;0.000;0.000;2024-01-11T19:21:13;20.70;33.50
28959;DHT22;16066;0.000;0.000;2024-01-11T19:23:39;20.70;33.70
28959;DHT22;16066;0.000;0.000;2024-01-11T19:26:05;20.60;33.90
28959;DHT22;16066;0.000;0.000;2024-01-11T19:28:30;20.60;33.90
28959;DHT22;16066;0.000;0.000;2024-01-11T19:30:56;20.60;34.00
28959;DHT22;16066;0.000;0.000;2024-01-11T19:33:22;20.60;34.30
28959;DHT22;16066;0.000;0.000;2024-01-11T19:35:47;20.60;34.40
28959;DHT22;16066;0.000;0.000;2024-01-11T19:38:13;20.70;34.30
28959;DHT22;16066;0.000;0.000;2024-01-11T19:40:39;20.80;34.30
28959;DHT22;16066;0.000;0.000;2024-01-11T19:43:05;20.80;34.00
28959;DHT22;16066;0.000;0.000;2024-01-11T19:45:31;20.90;34.00
28959;DHT22;16066;0.000;0.000;2024-01-11T19:47:56;20.90;33.80
28959;DHT22;16066;0.000;0.000;2024-01-11T19:50:22;21.00;33.70
28959;DHT22;16066;0.000;0.000;2024-01-11T19:52:48;21.00;33.70
28959;DHT22;16066;0.000;0.000;2024-01-11T19:55:14;21.10;33.60
28959;DHT22;16066;0.000;0.000;2024-01-11T19:57:39;21.10;33.50
28959;DHT22;16066;0.000;0.000;2024-01-11T20:00:05;21.10;33.40
28959;DHT22;16066;0.000;0.000;2024-01-11T20:02:32;21.20;33.40
28959;DHT22;16066;0.000;0.000;2024-01-11T20:04:58;21.20;33.40
28959;DHT22;16066;0.000;0.000;2024-01-11T20:07:23;21.20;33.30
28959;DHT22;16066;0.000;0.000;2024-01-11T20:09:49;21.20;33.20
28959;DHT22;16066;0.000;0.000;2024-01-11T20:12:15;21.20;33.10
28959;DHT22;16066;0.000;0.000;2024-01-11T20:14:40;21.20;33.20
28959;DHT22;16066;0.000;0.000;2024-01-11T20:17:09;21.20;33.10
28959;DHT22;16066;0.000;0.000;2024-01-11T20:19:34;21.20;33.10
28959;DHT22;16066;0.000;0.000;2024-01-11T20:22:00;21.20;33.10
28959;DHT22;16066;0.000;0.000;2024-01-11T20:24:26;21.20;33.20
28959;DHT22;16066;0.000;0.000;2024-01-11T20:26:53;21.10;33.00
28959;DHT22;16066;0.000;0.000;2024-01-11T20:29:19;21.10;33.10
28959;DHT22;16066;0.000;0.000;2024-01-11T20:31:44;21.10;33.10
28959;DHT22;16066;0.000;0.000;2024-01-11T20:34:10;21.10;33.30
28959;DHT22;16066;0.000;0.000;2024-01-11T20:36:38;21.00;33.20
28959;DHT22;16066;0.000;0.000;2024-01-11T20:39:04;21.00;33.30
28959;DHT22;16066;0.000;0.000;2024-01-11T20:41:30;21.00;33.30
28959;DHT22;16066;0.000;0.000;2024-01-11T20:43:55;20.90;33.40
28959;DHT22;16066;0.000;0.000;2024-01-11T20:46:22;20.90;33.40
28959;DHT22;16066;0.000;0.000;2024-01-11T20:48:48;20.90;33.40
28959;DHT22;16066;0.000;0.000;2024-01-11T20:51:15;21.00;33.50
28959;DHT22;16066;0.000;0.000;2024-01-11T20:53:44;20.90;33.20
28959;DHT22;16066;0.000;0.000;2024-01-11T20:56:10;21.00;33.00
28959;DHT22;16066;0.000;0.000;2024-01-11T20:58:35;21.00;33.40
28959;DHT22;16066;0.000;0.000;2024-01-11T21:01:01;21.00;33.10
28959;DHT22;16066;0.000;0.000;2024-01-11T21:03:26;21.00;33.00
28959;DHT22;16066;0.000;0.000;2024-01-11T21:05:52;21.00;33.10
28959;DHT22;16066;0.000;0.000;2024-01-11T21:08:19;21.00;33.00
28959;DHT22;16066;0.000;0.000;2024-01-11T21:10:45;21.00;32.90
28959;DHT22;16066;0.000;0.000;2024-01-11T21:13:11;21.00;33.00
28959;DHT22;16066;0.000;0.000;2024-01-11T21:15:36;21.00;32.90
28959;DHT22;16066;0.000;0.000;2024-01-11T21:18:03;21.00;32.90
28959;DHT22;16066;0.000;0.000;2024-01-11T21:20:29;21.00;32.90
28959;DHT22;16066;0.000;0.000;2024-01-11T21:22:55;21.00;32.90
28959;DHT22;16066;0.000;0.000;2024-01-11T21:25:23;21.00;32.90
28959;DHT22;16066;0.000;0.000;2024-01-11T21:27:49;21.00;33.10
28959;DHT22;16066;0.000;0.000;2024-01-11T21:30:14;21.00;33.00
28959;DHT22;16066;0.000;0.000;2024-01-11T21:32:40;21.00;33.10
28959;DHT22;16066;0.000;0.000;2024-01-11T21:35:06;21.00;33.10
28959;DHT22;16066;0.000;0.000;2024-01-11T21:37:32;20.90;33.00